createdAt,value
2022-10-09T00:01:26.507Z,9.80
2022-10-09T00:03:54.434Z,14.60
2022-10-09T00:06:32.442Z,11.00
2022-10-09T00:09:01.757Z,10.48
2022-10-09T00:11:29.119Z,10.45
2022-10-09T00:13:56.733Z,11.35
2022-10-09T00:16:23.883Z,11.02
2022-10-09T00:18:51.541Z,9.60
2022-10-09T00:21:38.315Z,14.93
2022-10-09T00:24:05.214Z,16.98
2022-10-09T00:26:32.675Z,12.80
2022-10-09T00:28:59.287Z,14.77
2022-10-09T00:31:25.908Z,14.10
2022-10-09T00:33:52.433Z,11.07
2022-10-09T00:36:21.412Z,15.85
2022-10-09T00:38:47.976Z,11.52
2022-10-09T00:41:17.017Z,21.02
2022-10-09T00:43:46.482Z,12.30
2022-10-09T00:46:25.853Z,13.93
2022-10-09T00:48:58.417Z,11.82
2022-10-09T00:51:25.005Z,11.18
2022-10-09T00:53:51.641Z,21.15
2022-10-09T00:56:18.398Z,13.57
2022-10-09T00:58:47.500Z,15.55
2022-10-09T01:01:14.020Z,15.13
2022-10-09T01:03:40.621Z,13.30
2022-10-09T01:06:17.721Z,13.20
2022-10-09T01:09:00.988Z,11.70
2022-10-09T01:11:40.980Z,16.95
2022-10-09T01:14:20.367Z,19.52
2022-10-09T01:17:04.713Z,14.98
2022-10-09T01:19:45.854Z,16.92
2022-10-09T01:22:43.070Z,18.27
2022-10-09T01:25:24.127Z,19.05
2022-10-09T01:27:50.901Z,14.20
2022-10-09T01:30:17.524Z,16.33
2022-10-09T01:32:47.866Z,15.10
2022-10-09T01:35:15.577Z,16.42
2022-10-09T01:37:43.449Z,11.63
2022-10-09T01:40:12.961Z,16.50
2022-10-09T01:42:39.461Z,11.98
2022-10-09T01:45:06.603Z,15.13
2022-10-09T01:47:33.206Z,16.10
2022-10-09T01:50:09.735Z,21.17
2022-10-09T01:52:47.322Z,16.38
2022-10-09T01:55:29.439Z,15.77
2022-10-09T01:58:19.908Z,17.40
2022-10-09T02:01:03.900Z,19.25
2022-10-09T02:03:31.453Z,22.25
2022-10-09T02:05:58.297Z,19.98
2022-10-09T02:08:25.677Z,24.15
2022-10-09T02:10:55.171Z,16.25
2022-10-09T02:13:22.119Z,13.60
2022-10-09T02:15:52.099Z,15.50
2022-10-09T02:18:26.891Z,15.85
2022-10-09T02:20:56.894Z,13.85
2022-10-09T02:23:24.465Z,17.15
2022-10-09T02:25:52.582Z,19.70
2022-10-09T02:28:19.278Z,17.45
2022-10-09T02:30:58.081Z,17.45
2022-10-09T02:33:31.339Z,22.25
2022-10-09T02:35:57.921Z,14.15
2022-10-09T02:38:24.482Z,15.02
2022-10-09T02:40:50.979Z,16.25
2022-10-09T02:43:17.580Z,14.98
2022-10-09T02:45:44.085Z,19.45
2022-10-09T02:48:10.562Z,13.20
2022-10-09T02:50:37.122Z,19.25
2022-10-09T02:53:03.646Z,12.73
2022-10-09T02:55:30.122Z,14.63
2022-10-09T02:57:56.626Z,11.15
2022-10-09T03:00:23.095Z,17.52
2022-10-09T03:02:49.901Z,19.10
2022-10-09T03:05:16.554Z,14.45
2022-10-09T03:07:50.392Z,17.05
2022-10-09T03:10:20.552Z,17.17
2022-10-09T03:12:47.932Z,16.98
2022-10-09T03:15:15.503Z,22.25
2022-10-09T03:17:41.988Z,21.92
2022-10-09T03:20:09.043Z,17.58
2022-10-09T03:22:35.583Z,20.13
2022-10-09T03:25:02.230Z,21.38
2022-10-09T03:27:30.718Z,22.08
2022-10-09T03:29:58.469Z,20.73
2022-10-09T03:32:26.680Z,20.85
2022-10-09T03:34:53.270Z,28.20
2022-10-09T03:37:19.848Z,24.23
2022-10-09T03:39:46.391Z,25.77
2022-10-09T03:42:13.179Z,18.65
2022-10-09T03:44:39.686Z,23.63
2022-10-09T03:47:06.263Z,24.25
2022-10-09T03:49:32.734Z,29.80
2022-10-09T03:51:59.286Z,36.88
2022-10-09T03:54:25.852Z,32.05
2022-10-09T03:56:52.377Z,28.27
2022-10-09T03:59:18.863Z,33.70
2022-10-09T04:01:45.443Z,29.13
2022-10-09T04:04:11.912Z,22.25
2022-10-09T04:06:38.407Z,26.95
2022-10-09T04:09:04.993Z,33.38
2022-10-09T04:11:31.513Z,29.65
2022-10-09T04:13:58.012Z,29.48
2022-10-09T04:16:24.633Z,30.35
2022-10-09T04:18:51.188Z,28.15
2022-10-09T04:21:17.959Z,30.75
2022-10-09T04:23:44.590Z,30.33
2022-10-09T04:26:12.550Z,34.35
2022-10-09T04:28:39.551Z,26.30
2022-10-09T04:31:06.107Z,28.08
2022-10-09T04:33:32.742Z,25.65
2022-10-09T04:35:59.320Z,29.70
2022-10-09T04:38:26.349Z,30.35
2022-10-09T04:41:04.026Z,30.00
2022-10-09T04:43:30.889Z,31.10
2022-10-09T04:45:57.552Z,34.65
2022-10-09T04:48:24.369Z,31.70
2022-10-09T04:50:51.045Z,32.72
2022-10-09T04:53:17.671Z,26.60
2022-10-09T04:55:44.848Z,33.58
2022-10-09T04:58:12.690Z,38.63
2022-10-09T05:00:43.342Z,29.42
2022-10-09T05:03:10.675Z,30.63
2022-10-09T05:05:37.627Z,30.08
2022-10-09T05:08:04.253Z,34.47
2022-10-09T05:10:32.255Z,36.00
2022-10-09T05:12:59.331Z,29.52
2022-10-09T05:15:26.255Z,32.25
2022-10-09T05:17:52.709Z,36.15
2022-10-09T05:20:19.310Z,38.70
2022-10-09T05:22:46.992Z,40.72
2022-10-09T05:25:14.070Z,33.92
2022-10-09T05:27:40.584Z,36.78
2022-10-09T05:30:07.592Z,34.45
2022-10-09T05:32:34.093Z,36.75
2022-10-09T05:35:00.899Z,30.02
2022-10-09T05:37:27.665Z,31.33
2022-10-09T05:39:54.210Z,29.90
2022-10-09T05:42:20.796Z,34.90
2022-10-09T05:44:47.263Z,33.55
2022-10-09T05:47:17.758Z,38.17
2022-10-09T05:49:44.273Z,37.70
2022-10-09T05:52:10.835Z,35.33
2022-10-09T05:54:37.407Z,31.23
2022-10-09T05:57:04.852Z,31.20
2022-10-09T05:59:31.312Z,26.55
2022-10-09T06:01:57.978Z,30.88
2022-10-09T06:04:25.003Z,34.47
2022-10-09T06:06:52.001Z,34.63
2022-10-09T06:09:25.333Z,28.80
2022-10-09T06:11:53.405Z,38.08
2022-10-09T06:14:24.248Z,45.10
2022-10-09T06:16:50.875Z,41.10
2022-10-09T06:19:19.788Z,36.70
2022-10-09T06:21:47.260Z,30.73
2022-10-09T06:24:23.296Z,40.95
2022-10-09T06:26:52.231Z,32.85
2022-10-09T06:29:18.738Z,40.08
2022-10-09T06:31:45.310Z,37.63
2022-10-09T06:34:11.826Z,36.30
2022-10-09T06:36:38.391Z,42.10
2022-10-09T06:39:07.209Z,35.53
2022-10-09T06:41:34.227Z,42.85
2022-10-09T06:44:16.311Z,41.75
2022-10-09T06:46:44.686Z,39.28
2022-10-09T06:49:11.781Z,37.17
2022-10-09T06:51:38.700Z,40.05
2022-10-09T06:54:10.014Z,42.33
2022-10-09T06:59:05.030Z,42.00
2022-10-09T07:01:32.527Z,38.03
2022-10-09T07:04:06.654Z,36.42
2022-10-09T07:06:36.514Z,30.55
2022-10-09T07:09:05.951Z,32.22
2022-10-09T07:11:35.518Z,30.08
2022-10-09T07:14:03.182Z,19.73
2022-10-09T07:16:38.810Z,26.27
2022-10-09T07:19:07.574Z,16.77
2022-10-09T07:21:35.277Z,18.25
2022-10-09T07:24:02.905Z,15.60
2022-10-09T07:26:31.311Z,18.27
2022-10-09T07:28:58.491Z,13.63
2022-10-09T07:31:25.166Z,12.43
2022-10-09T07:33:53.622Z,12.32
2022-10-09T07:36:20.329Z,11.10
2022-10-09T07:38:51.639Z,13.90
2022-10-09T07:43:44.766Z,10.82
2022-10-09T07:46:13.591Z,12.95
2022-10-09T07:48:40.425Z,11.77
2022-10-09T07:51:11.178Z,10.80
2022-10-09T07:53:38.096Z,7.55
2022-10-09T07:56:05.065Z,12.85
2022-10-09T07:58:32.131Z,11.27
2022-10-09T08:01:06.102Z,10.38
2022-10-09T08:03:33.317Z,10.75
2022-10-09T08:05:59.926Z,12.90
2022-10-09T08:08:26.898Z,13.23
2022-10-09T08:10:53.537Z,10.88
2022-10-09T08:13:20.171Z,13.45
2022-10-09T08:15:46.760Z,8.13
2022-10-09T08:18:13.386Z,9.80
2022-10-09T08:20:39.979Z,7.82
2022-10-09T08:23:06.554Z,15.48
2022-10-09T08:25:36.901Z,8.80
2022-10-09T08:28:04.159Z,9.48
2022-10-09T08:30:30.671Z,11.98
2022-10-09T08:32:57.124Z,13.02
2022-10-09T08:35:23.758Z,11.25
2022-10-09T08:37:50.255Z,12.73
2022-10-09T08:40:18.895Z,8.90
2022-10-09T08:43:04.236Z,9.73
2022-10-09T08:45:31.365Z,11.73
2022-10-09T08:48:02.792Z,9.98
2022-10-09T08:50:38.177Z,11.75
2022-10-09T08:53:13.664Z,8.45
2022-10-09T08:55:53.605Z,11.68
2022-10-09T08:58:21.243Z,8.55
2022-10-09T09:00:55.362Z,12.60
2022-10-09T09:03:46.351Z,7.63
2022-10-09T09:06:21.962Z,12.25
2022-10-09T09:09:01.130Z,12.57
2022-10-09T09:11:53.014Z,13.05
2022-10-09T09:14:38.280Z,12.13
2022-10-09T09:17:30.910Z,11.25
2022-10-09T09:20:11.240Z,7.90
2022-10-09T09:22:42.113Z,8.37
2022-10-09T09:25:28.515Z,8.13
2022-10-09T09:28:02.590Z,9.55
2022-10-09T09:30:31.621Z,10.35
2022-10-09T09:33:04.842Z,9.93
2022-10-09T09:35:49.577Z,9.45
2022-10-09T09:38:16.366Z,9.27
2022-10-09T09:40:47.230Z,9.50
2022-10-09T09:43:18.899Z,9.80
2022-10-09T09:48:16.188Z,11.20
2022-10-09T09:50:56.299Z,11.40
2022-10-09T09:53:28.934Z,8.35
2022-10-09T09:55:56.154Z,7.30
2022-10-09T09:58:23.043Z,11.13
2022-10-09T10:00:58.064Z,6.25
2022-10-09T10:03:25.073Z,13.90
2022-10-09T10:05:51.892Z,9.63
2022-10-09T10:08:32.841Z,7.43
2022-10-09T10:11:01.806Z,6.70
2022-10-09T10:13:38.105Z,10.30
2022-10-09T10:16:07.213Z,11.15
2022-10-09T10:18:41.971Z,8.40
2022-10-09T10:21:12.494Z,7.75
2022-10-09T10:23:50.863Z,7.50
2022-10-09T10:26:34.801Z,9.20
2022-10-09T10:29:09.046Z,12.32
2022-10-09T10:31:43.555Z,10.55
2022-10-09T10:34:23.591Z,9.35
2022-10-09T10:37:00.997Z,10.45
2022-10-09T10:39:47.460Z,8.63
2022-10-09T10:42:22.837Z,9.07
2022-10-09T10:44:55.076Z,7.03
2022-10-09T10:47:24.446Z,10.23
2022-10-09T10:49:51.092Z,8.68
2022-10-09T10:52:36.645Z,10.85
2022-10-09T10:55:32.209Z,6.47
2022-10-09T10:58:16.126Z,6.05
2022-10-09T11:01:04.452Z,7.15
2022-10-09T11:03:42.751Z,4.82
2022-10-09T11:06:26.088Z,7.25
2022-10-09T11:09:28.497Z,8.43
2022-10-09T11:12:02.508Z,5.45
2022-10-09T11:15:02.932Z,8.90
2022-10-09T11:17:47.044Z,8.68
2022-10-09T11:20:19.640Z,8.32
2022-10-09T11:23:03.606Z,7.10
2022-10-09T11:25:39.796Z,9.23
2022-10-09T11:28:22.230Z,9.98
2022-10-09T11:30:54.682Z,8.23
2022-10-09T11:33:45.525Z,8.25
2022-10-09T11:36:40.003Z,7.78
2022-10-09T11:39:11.496Z,6.75
2022-10-09T11:41:38.146Z,5.50
2022-10-09T11:44:29.148Z,5.85
2022-10-09T11:47:28.179Z,7.97
2022-10-09T11:50:00.273Z,6.85
2022-10-09T11:52:42.398Z,7.22
2022-10-09T11:55:25.199Z,5.80
2022-10-09T11:57:52.096Z,7.72
2022-10-09T12:00:32.966Z,6.53
2022-10-09T12:03:02.478Z,5.27
2022-10-09T12:05:34.133Z,5.22
2022-10-09T12:08:08.220Z,3.15
2022-10-09T12:10:35.499Z,8.52
2022-10-09T12:13:05.006Z,7.00
2022-10-09T12:15:45.810Z,6.22
2022-10-09T12:18:26.340Z,7.43
2022-10-09T12:20:54.487Z,6.40
2022-10-09T12:23:27.713Z,5.95
2022-10-09T12:25:55.721Z,4.80
2022-10-09T12:28:46.929Z,6.40
2022-10-09T12:31:26.651Z,3.00
2022-10-09T12:33:57.084Z,4.90
2022-10-09T12:36:26.827Z,9.50
2022-10-09T12:38:53.678Z,6.68
2022-10-09T12:41:32.489Z,2.80
2022-10-09T12:43:59.348Z,3.67
2022-10-09T12:46:37.513Z,3.92
2022-10-09T12:49:08.702Z,5.78
2022-10-09T12:51:35.200Z,5.93
2022-10-09T12:54:08.900Z,5.60
2022-10-09T12:56:38.324Z,4.38
2022-10-09T12:59:06.276Z,3.25
2022-10-09T13:01:34.280Z,3.78
2022-10-09T13:04:04.222Z,2.80
2022-10-09T13:06:44.058Z,4.95
2022-10-09T13:09:25.439Z,5.55
2022-10-09T13:12:06.802Z,3.63
2022-10-09T13:17:00.130Z,8.98
2022-10-09T13:19:27.058Z,5.88
2022-10-09T13:22:18.591Z,4.60
2022-10-09T13:24:45.219Z,5.90
2022-10-09T13:27:14.496Z,4.20
2022-10-09T13:29:43.883Z,8.38
2022-10-09T13:32:13.464Z,6.57
2022-10-09T13:34:40.574Z,10.35
2022-10-09T13:37:07.203Z,3.53
2022-10-09T13:39:33.783Z,5.28
2022-10-09T13:42:00.864Z,4.47
2022-10-09T13:44:27.362Z,4.93
2022-10-09T13:46:54.480Z,5.55
2022-10-09T13:49:21.086Z,7.03
2022-10-09T13:51:47.584Z,4.65
2022-10-09T13:54:14.088Z,6.45
2022-10-09T13:56:40.656Z,5.95
2022-10-09T13:59:07.208Z,3.72
2022-10-09T14:01:33.835Z,5.22
2022-10-09T14:04:00.385Z,3.92
2022-10-09T14:06:26.853Z,3.50
2022-10-09T14:08:53.364Z,5.22
2022-10-09T14:11:19.882Z,4.63
2022-10-09T14:13:46.527Z,7.25
2022-10-09T14:16:13.223Z,5.43
2022-10-09T14:18:39.794Z,3.97
2022-10-09T14:21:15.248Z,5.10
2022-10-09T14:23:42.130Z,2.75
2022-10-09T14:26:08.703Z,5.35
2022-10-09T14:28:35.335Z,4.75
2022-10-09T14:31:07.693Z,2.60
2022-10-09T14:33:34.533Z,4.47
2022-10-09T14:36:12.963Z,6.25
2022-10-09T14:38:40.267Z,2.88
2022-10-09T14:41:07.185Z,2.80
2022-10-09T14:43:33.636Z,5.30
2022-10-09T14:46:05.438Z,2.58
2022-10-09T14:48:32.990Z,2.47
2022-10-09T14:51:06.681Z,5.70
2022-10-09T14:53:33.623Z,6.07
2022-10-09T14:56:04.542Z,3.30
2022-10-09T14:58:32.201Z,5.03
2022-10-09T15:00:59.145Z,3.55
2022-10-09T15:03:27.282Z,4.85
2022-10-09T15:06:01.729Z,5.10
2022-10-09T15:08:36.158Z,2.60
2022-10-09T15:11:03.336Z,4.03
2022-10-09T15:13:30.104Z,3.22
2022-10-09T15:16:07.566Z,5.35
2022-10-09T15:18:34.110Z,6.20
2022-10-09T15:21:00.744Z,5.63
2022-10-09T15:23:27.735Z,10.50
2022-10-09T15:25:56.482Z,6.43
2022-10-09T15:28:23.348Z,5.65
2022-10-09T15:30:53.394Z,4.38
2022-10-09T15:33:22.166Z,3.88
2022-10-09T15:35:49.897Z,4.57
2022-10-09T15:38:18.445Z,15.18
2022-10-09T15:40:47.688Z,3.53
2022-10-09T15:43:16.540Z,3.45
2022-10-09T15:45:43.663Z,4.53
2022-10-09T15:48:18.305Z,2.70
2022-10-09T15:50:46.588Z,6.25
2022-10-09T15:53:14.879Z,4.80
2022-10-09T15:55:45.974Z,4.30
2022-10-09T15:58:14.274Z,2.35
2022-10-09T16:00:44.210Z,6.78
2022-10-09T16:03:11.152Z,4.47
2022-10-09T16:05:43.239Z,3.05
2022-10-09T16:08:11.190Z,5.03
2022-10-09T16:10:48.659Z,5.22
2022-10-09T16:13:16.736Z,2.28
2022-10-09T16:15:44.710Z,5.85
2022-10-09T16:18:11.548Z,5.97
2022-10-09T16:20:40.290Z,5.70
2022-10-09T16:23:08.288Z,3.55
2022-10-09T16:25:36.225Z,4.25
2022-10-09T16:28:03.974Z,5.82
2022-10-09T16:30:32.090Z,3.40
2022-10-09T16:32:58.925Z,5.15
2022-10-09T16:35:25.466Z,3.17
2022-10-09T16:37:52.531Z,4.75
2022-10-09T16:40:19.021Z,6.35
2022-10-09T16:42:45.740Z,3.60
2022-10-09T16:45:12.657Z,3.90
2022-10-09T16:47:40.382Z,4.18
2022-10-09T16:50:07.791Z,6.57
2022-10-09T16:52:34.377Z,5.60
2022-10-09T16:55:00.984Z,5.80
2022-10-09T16:57:28.145Z,2.75
2022-10-09T16:59:54.636Z,13.48
2022-10-09T17:02:21.417Z,4.93
2022-10-09T17:04:47.961Z,4.95
2022-10-09T17:07:14.606Z,8.07
2022-10-09T17:09:41.146Z,3.75
2022-10-09T17:12:09.684Z,6.25
2022-10-09T17:14:37.228Z,5.80
2022-10-09T17:17:05.167Z,5.40
2022-10-09T17:19:32.397Z,5.90
2022-10-09T17:22:00.656Z,4.57
2022-10-09T17:24:28.015Z,7.80
2022-10-09T17:26:55.239Z,5.35
2022-10-09T17:29:22.557Z,6.22
2022-10-09T17:31:49.686Z,5.95
2022-10-09T17:34:17.031Z,7.10
2022-10-09T17:36:44.708Z,7.07
2022-10-09T17:39:14.325Z,7.68
2022-10-09T17:41:40.823Z,5.60
2022-10-09T17:44:07.293Z,6.18
2022-10-09T17:46:33.822Z,3.88
2022-10-09T17:49:01.068Z,7.53
2022-10-09T17:51:29.753Z,6.50
2022-10-09T17:56:31.373Z,8.70
2022-10-09T17:59:01.596Z,7.65
2022-10-09T18:01:29.085Z,7.72
2022-10-09T18:03:56.257Z,10.05
2022-10-09T18:06:23.976Z,9.35
2022-10-09T18:08:53.007Z,4.30
2022-10-09T18:11:20.833Z,3.67
2022-10-09T18:13:47.882Z,6.40
2022-10-09T18:16:20.452Z,4.35
2022-10-09T18:18:46.954Z,6.78
2022-10-09T18:21:18.090Z,6.05
2022-10-09T18:23:46.150Z,6.47
2022-10-09T18:26:15.679Z,4.13
2022-10-09T18:28:44.751Z,6.25
2022-10-09T18:31:17.136Z,3.63
2022-10-09T18:33:43.797Z,6.82
2022-10-09T18:36:19.900Z,4.53
2022-10-09T18:38:48.321Z,4.55
2022-10-09T18:41:15.344Z,5.10
2022-10-09T18:43:41.923Z,4.68
2022-10-09T18:46:08.729Z,5.85
2022-10-09T18:48:38.001Z,7.22
2022-10-09T18:51:05.768Z,4.93
2022-10-09T18:53:32.734Z,7.57
2022-10-09T18:55:59.445Z,5.10
2022-10-09T18:58:25.947Z,11.40
2022-10-09T19:00:52.523Z,7.30
2022-10-09T19:03:19.194Z,3.83
2022-10-09T19:05:45.834Z,5.35
2022-10-09T19:08:12.315Z,6.20
2022-10-09T19:10:38.790Z,8.25
2022-10-09T19:13:05.704Z,7.90
2022-10-09T19:15:32.183Z,6.97
2022-10-09T19:17:58.703Z,4.72
2022-10-09T19:20:25.265Z,5.57
2022-10-09T19:22:51.813Z,7.55
2022-10-09T19:25:18.452Z,4.45
2022-10-09T19:27:44.990Z,7.80
2022-10-09T19:30:12.166Z,4.68
2022-10-09T19:32:38.694Z,6.72
2022-10-09T19:35:05.638Z,6.75
2022-10-09T19:37:32.144Z,7.57
2022-10-09T19:39:58.687Z,6.53
2022-10-09T19:42:25.264Z,5.30
2022-10-09T19:44:51.833Z,6.03
2022-10-09T19:47:19.048Z,5.80
2022-10-09T19:49:45.623Z,4.88
2022-10-09T19:52:12.442Z,9.80
2022-10-09T19:54:40.070Z,12.48
2022-10-09T19:57:06.631Z,8.20
2022-10-09T19:59:33.170Z,10.57
2022-10-09T20:01:59.870Z,9.30
2022-10-09T20:04:26.373Z,6.93
2022-10-09T20:06:52.897Z,10.93
2022-10-09T20:09:20.725Z,7.93
2022-10-09T20:11:47.349Z,13.15
2022-10-09T20:14:13.834Z,7.90
2022-10-09T20:16:40.437Z,8.43
2022-10-09T20:19:07.125Z,10.88
2022-10-09T20:21:34.108Z,9.38
2022-10-09T20:24:01.268Z,6.72
2022-10-09T20:26:28.295Z,7.45
2022-10-09T20:28:55.142Z,8.15
2022-10-09T20:31:23.864Z,6.95
2022-10-09T20:33:51.005Z,8.18
2022-10-09T20:36:29.870Z,8.10
2022-10-09T20:39:01.419Z,10.55
2022-10-09T20:41:29.531Z,9.80
2022-10-09T20:43:58.518Z,8.52
2022-10-09T20:46:27.941Z,7.88
2022-10-09T20:48:54.662Z,8.57
2022-10-09T20:51:22.641Z,9.75
2022-10-09T20:53:57.318Z,9.48
2022-10-09T20:56:26.139Z,9.60
2022-10-09T20:58:52.824Z,8.40
2022-10-09T21:01:19.754Z,10.43
2022-10-09T21:03:46.375Z,6.75
2022-10-09T21:06:18.034Z,15.45
2022-10-09T21:08:45.323Z,5.82
2022-10-09T21:11:13.959Z,6.88
2022-10-09T21:13:41.607Z,11.13
2022-10-09T21:16:10.179Z,6.80
2022-10-09T21:18:37.601Z,7.50
2022-10-09T21:21:10.096Z,7.40
2022-10-09T21:23:37.106Z,6.90
2022-10-09T21:26:04.233Z,8.23
2022-10-09T21:28:31.069Z,6.32
2022-10-09T21:30:57.742Z,10.27
2022-10-09T21:33:24.255Z,6.32
2022-10-09T21:35:55.114Z,12.90
2022-10-09T21:38:22.397Z,9.25
2022-10-09T21:40:50.225Z,8.05
2022-10-09T21:43:17.585Z,10.52
2022-10-09T21:45:44.305Z,9.00
2022-10-09T21:48:15.034Z,10.05
2022-10-09T21:50:41.667Z,11.15
2022-10-09T21:53:08.396Z,15.27
2022-10-09T21:55:37.149Z,11.38
2022-10-09T21:58:04.606Z,10.25
2022-10-09T22:00:33.066Z,14.13
2022-10-09T22:03:00.113Z,13.60
2022-10-09T22:05:26.874Z,12.55
2022-10-09T22:07:53.727Z,10.60
2022-10-09T22:10:20.586Z,13.55
2022-10-09T22:12:47.459Z,11.95
2022-10-09T22:15:14.450Z,7.47
2022-10-09T22:17:41.328Z,12.00
2022-10-09T22:20:09.029Z,11.82
2022-10-09T22:22:35.772Z,11.60
2022-10-09T22:25:02.755Z,9.07
2022-10-09T22:27:29.526Z,11.32
2022-10-09T22:29:56.291Z,11.77
2022-10-09T22:32:23.067Z,12.32
2022-10-09T22:34:51.507Z,11.57
2022-10-09T22:37:18.443Z,10.95
2022-10-09T22:39:45.605Z,8.70
2022-10-09T22:42:12.306Z,8.23
2022-10-09T22:44:39.156Z,8.43
2022-10-09T22:47:08.043Z,15.18
2022-10-09T22:49:34.875Z,8.52
2022-10-09T22:52:01.812Z,12.65
2022-10-09T22:54:28.611Z,10.43
2022-10-09T22:56:55.368Z,9.02
2022-10-09T22:59:22.148Z,7.20
2022-10-09T23:01:53.783Z,13.20
2022-10-09T23:04:21.844Z,10.68
2022-10-09T23:06:53.281Z,16.90
2022-10-09T23:09:21.168Z,11.30
2022-10-09T23:11:48.255Z,15.93
2022-10-09T23:14:15.641Z,15.85
2022-10-09T23:16:42.809Z,12.38
2022-10-09T23:19:10.449Z,15.23
2022-10-09T23:21:39.827Z,12.38
2022-10-09T23:24:17.959Z,14.85
2022-10-09T23:26:46.193Z,14.98
2022-10-09T23:29:16.866Z,22.30
2022-10-09T23:31:44.068Z,15.43
2022-10-09T23:34:11.208Z,15.50
2022-10-09T23:36:38.107Z,13.93
2022-10-09T23:39:06.205Z,14.30
2022-10-09T23:41:32.965Z,13.98
2022-10-09T23:43:59.810Z,15.25
2022-10-09T23:46:29.270Z,12.02
2022-10-09T23:48:56.560Z,13.82
2022-10-09T23:51:24.356Z,16.63
2022-10-09T23:53:51.402Z,17.70
2022-10-09T23:56:19.742Z,15.95
2022-10-09T23:58:47.140Z,13.73
